createdAt,value
2022-12-02T00:01:12.124Z,35.73
2022-12-02T00:03:38.749Z,35.69
2022-12-02T00:06:05.436Z,35.73
2022-12-02T00:08:32.728Z,35.53
2022-12-02T00:11:01.841Z,35.48
2022-12-02T00:13:30.066Z,35.49
2022-12-02T00:16:00.696Z,35.63
2022-12-02T00:18:27.334Z,35.28
2022-12-02T00:20:53.943Z,35.68
2022-12-02T00:23:20.438Z,35.66
2022-12-02T00:25:48.424Z,35.78
2022-12-02T00:28:15.375Z,35.85
2022-12-02T00:30:41.961Z,35.63
2022-12-02T00:33:08.628Z,35.73
2022-12-02T00:35:35.170Z,35.71
2022-12-02T00:38:01.625Z,35.78
2022-12-02T00:40:28.125Z,35.76
2022-12-02T00:42:54.598Z,35.69
2022-12-02T00:45:39.615Z,35.79
2022-12-02T00:48:06.131Z,35.93
2022-12-02T00:50:32.602Z,35.67
2022-12-02T00:52:59.299Z,35.80
2022-12-02T00:55:25.793Z,35.97
2022-12-02T00:57:52.261Z,35.78
2022-12-02T01:00:19.100Z,36.01
2022-12-02T01:02:45.572Z,36.10
2022-12-02T01:05:12.048Z,35.87
2022-12-02T01:07:38.818Z,35.79
2022-12-02T01:10:06.732Z,35.99
2022-12-02T01:12:33.492Z,35.84
2022-12-02T01:15:00.351Z,35.78
2022-12-02T01:17:26.897Z,35.75
2022-12-02T01:19:53.352Z,35.92
2022-12-02T01:22:19.800Z,36.09
2022-12-02T01:24:46.242Z,35.91
2022-12-02T01:27:12.689Z,36.07
2022-12-02T01:29:39.392Z,35.75
2022-12-02T01:32:05.943Z,35.92
2022-12-02T01:34:32.425Z,35.67
2022-12-02T01:36:58.893Z,35.94
2022-12-02T01:39:25.338Z,35.81
2022-12-02T01:41:51.810Z,36.12
2022-12-02T01:44:18.254Z,35.94
2022-12-02T01:46:44.740Z,35.96
2022-12-02T01:49:11.219Z,35.92
2022-12-02T01:51:37.682Z,36.05
2022-12-02T01:54:04.185Z,36.10
2022-12-02T01:56:30.649Z,36.13
2022-12-02T01:58:57.337Z,36.03
2022-12-02T02:01:25.592Z,36.12
2022-12-02T02:03:52.781Z,36.14
2022-12-02T02:06:19.253Z,36.10
2022-12-02T02:08:45.733Z,35.74
2022-12-02T02:11:12.199Z,35.93
2022-12-02T02:13:38.644Z,36.03
2022-12-02T02:16:05.258Z,36.08
2022-12-02T02:18:31.718Z,36.08
2022-12-02T02:20:58.559Z,36.09
2022-12-02T02:23:25.611Z,36.20
2022-12-02T02:25:54.310Z,35.99
2022-12-02T02:28:21.367Z,36.09
2022-12-02T02:30:47.881Z,36.14
2022-12-02T02:33:14.581Z,36.13
2022-12-02T02:35:42.356Z,36.13
2022-12-02T02:38:09.784Z,36.15
2022-12-02T02:40:36.334Z,35.84
2022-12-02T02:43:02.849Z,36.20
2022-12-02T02:45:30.897Z,36.02
2022-12-02T02:47:57.354Z,36.07
2022-12-02T02:50:24.026Z,35.96
2022-12-02T02:52:50.502Z,36.05
2022-12-02T02:55:19.265Z,35.97
2022-12-02T02:57:46.463Z,35.99
2022-12-02T03:00:13.502Z,36.10
2022-12-02T03:02:40.084Z,36.15
2022-12-02T03:05:06.743Z,36.02
2022-12-02T03:07:33.486Z,36.10
2022-12-02T03:09:59.958Z,36.04
2022-12-02T03:12:26.506Z,36.18
2022-12-02T03:14:53.270Z,35.97
2022-12-02T03:17:19.866Z,36.19
2022-12-02T03:19:46.314Z,36.11
2022-12-02T03:22:12.863Z,36.29
2022-12-02T03:24:39.737Z,36.12
2022-12-02T03:27:06.577Z,36.27
2022-12-02T03:29:33.028Z,36.08
2022-12-02T03:31:59.509Z,36.19
2022-12-02T03:34:26.025Z,36.39
2022-12-02T03:36:52.634Z,35.99
2022-12-02T03:39:19.195Z,36.25
2022-12-02T03:41:46.586Z,36.07
2022-12-02T03:44:13.485Z,36.10
2022-12-02T03:46:40.329Z,36.01
2022-12-02T03:49:07.139Z,35.89
2022-12-02T03:51:33.637Z,36.16
2022-12-02T03:54:01.024Z,36.08
2022-12-02T03:56:27.886Z,36.26
2022-12-02T03:58:54.499Z,36.30
2022-12-02T04:01:23.840Z,36.13
2022-12-02T04:03:50.733Z,36.34
2022-12-02T04:06:17.239Z,36.42
2022-12-02T04:08:43.820Z,36.33
2022-12-02T04:11:10.269Z,36.20
2022-12-02T04:13:36.939Z,36.23
2022-12-02T04:16:03.693Z,36.17
2022-12-02T04:18:30.611Z,36.37
2022-12-02T04:21:06.416Z,36.44
2022-12-02T04:23:32.885Z,36.37
2022-12-02T04:25:59.358Z,36.53
2022-12-02T04:28:25.806Z,36.36
2022-12-02T04:30:52.654Z,36.32
2022-12-02T04:33:19.474Z,36.48
2022-12-02T04:35:46.120Z,36.30
2022-12-02T04:38:12.784Z,36.24
2022-12-02T04:40:39.853Z,36.47
2022-12-02T04:43:06.585Z,36.41
2022-12-02T04:45:33.268Z,36.37
2022-12-02T04:47:59.809Z,36.40
2022-12-02T04:50:26.256Z,36.20
2022-12-02T04:52:52.732Z,36.36
2022-12-02T04:55:19.231Z,36.23
2022-12-02T04:57:45.672Z,36.41
2022-12-02T05:00:12.649Z,36.22
2022-12-02T05:02:39.175Z,36.35
2022-12-02T05:05:06.130Z,36.09
2022-12-02T05:07:32.610Z,36.28
2022-12-02T05:09:59.124Z,36.24
2022-12-02T05:12:25.837Z,36.29
2022-12-02T05:14:52.819Z,36.38
2022-12-02T05:17:19.555Z,36.31
2022-12-02T05:19:46.279Z,36.37
2022-12-02T05:22:12.745Z,36.32
2022-12-02T05:24:40.157Z,36.49
2022-12-02T05:27:06.621Z,36.34
2022-12-02T05:29:33.104Z,36.22
2022-12-02T05:31:59.568Z,36.13
2022-12-02T05:34:26.014Z,36.20
2022-12-02T05:36:52.487Z,36.12
2022-12-02T05:39:18.935Z,36.26
2022-12-02T05:41:45.451Z,36.08
2022-12-02T05:44:19.750Z,36.10
2022-12-02T05:46:46.328Z,36.16
2022-12-02T05:49:22.789Z,36.00
2022-12-02T05:51:59.448Z,36.08
2022-12-02T05:54:26.365Z,36.08
2022-12-02T05:56:52.914Z,36.09
2022-12-02T05:59:21.216Z,36.20
2022-12-02T06:01:52.204Z,36.13
2022-12-02T06:04:20.133Z,36.21
2022-12-02T06:06:46.612Z,36.29
2022-12-02T06:09:16.679Z,36.29
2022-12-02T06:11:43.320Z,36.21
2022-12-02T06:14:15.621Z,36.24
2022-12-02T06:16:44.489Z,36.26
2022-12-02T06:19:23.436Z,36.19
2022-12-02T06:21:49.927Z,36.28
2022-12-02T06:24:16.429Z,36.20
2022-12-02T06:26:42.870Z,36.26
2022-12-02T06:29:09.326Z,36.21
2022-12-02T06:31:37.933Z,36.30
2022-12-02T06:34:23.344Z,36.38
2022-12-02T06:36:49.789Z,36.27
2022-12-02T06:39:20.529Z,36.18
2022-12-02T06:41:47.074Z,36.12
2022-12-02T06:44:35.423Z,36.13
2022-12-02T06:47:28.628Z,36.19
2022-12-02T06:49:55.073Z,36.04
2022-12-02T06:52:22.111Z,35.97
2022-12-02T06:54:49.024Z,35.94
2022-12-02T06:57:16.733Z,35.84
2022-12-02T06:59:45.158Z,35.94
2022-12-02T07:02:22.750Z,35.82
2022-12-02T07:04:50.208Z,35.76
2022-12-02T07:07:21.938Z,35.74
2022-12-02T07:09:59.080Z,35.66
2022-12-02T07:12:42.257Z,35.78
2022-12-02T07:15:31.148Z,35.79
2022-12-02T07:17:58.509Z,35.69
2022-12-02T07:20:30.071Z,35.77
2022-12-02T07:22:58.674Z,35.80
2022-12-02T07:25:38.850Z,35.84
2022-12-02T07:28:28.030Z,35.80
2022-12-02T07:31:09.470Z,35.83
2022-12-02T07:33:36.047Z,35.85
2022-12-02T07:36:02.484Z,35.68
2022-12-02T07:38:57.637Z,35.71
2022-12-02T07:41:15.385Z,35.89
2022-12-02T07:43:41.925Z,35.85
2022-12-02T07:46:08.391Z,35.84
2022-12-02T07:48:34.888Z,35.89
2022-12-02T07:51:01.749Z,35.74
2022-12-02T07:53:28.201Z,35.76
2022-12-02T07:55:54.654Z,35.74
2022-12-02T07:58:21.370Z,36.08
2022-12-02T08:00:47.814Z,36.11
2022-12-02T08:03:14.272Z,36.14
2022-12-02T08:05:40.729Z,36.15
2022-12-02T08:08:07.231Z,36.22
2022-12-02T08:10:33.693Z,36.25
2022-12-02T08:13:00.162Z,36.34
2022-12-02T08:15:26.619Z,36.38
2022-12-02T08:17:53.132Z,36.43
2022-12-02T08:20:19.636Z,36.57
2022-12-02T08:22:46.155Z,36.48
2022-12-02T08:25:12.620Z,36.34
2022-12-02T08:27:45.084Z,36.41
2022-12-02T08:30:15.265Z,36.51
2022-12-02T08:32:41.790Z,36.41
2022-12-02T08:35:08.469Z,36.17
2022-12-02T08:37:34.936Z,36.14
2022-12-02T08:40:01.390Z,36.20
2022-12-02T08:42:27.824Z,36.11
2022-12-02T08:44:54.257Z,36.14
2022-12-02T08:47:20.712Z,35.97
2022-12-02T08:49:47.158Z,35.93
2022-12-02T08:52:13.718Z,35.90
2022-12-02T08:54:43.576Z,35.90
2022-12-02T08:57:10.017Z,35.61
2022-12-02T08:59:36.466Z,35.63
2022-12-02T09:02:03.002Z,35.86
2022-12-02T09:04:29.476Z,35.62
2022-12-02T09:06:55.955Z,35.37
2022-12-02T09:09:22.413Z,35.56
2022-12-02T09:11:48.853Z,35.48
2022-12-02T09:14:15.435Z,35.55
2022-12-02T09:16:41.885Z,35.45
2022-12-02T09:19:08.369Z,35.38
2022-12-02T09:21:34.863Z,35.45
2022-12-02T09:24:01.405Z,35.65
2022-12-02T09:26:27.884Z,35.66
2022-12-02T09:28:54.348Z,35.66
2022-12-02T09:31:20.865Z,35.69
2022-12-02T09:33:47.505Z,35.72
2022-12-02T09:36:13.989Z,35.55
2022-12-02T09:38:40.787Z,35.57
2022-12-02T09:41:07.589Z,35.71
2022-12-02T09:43:34.062Z,35.87
2022-12-02T09:46:00.704Z,35.85
2022-12-02T09:48:27.598Z,35.85
2022-12-02T09:50:54.084Z,35.80
2022-12-02T09:53:20.681Z,35.78
2022-12-02T09:55:47.191Z,35.94
2022-12-02T09:58:22.436Z,35.88
2022-12-02T10:00:50.977Z,35.94
2022-12-02T10:03:19.183Z,35.97
2022-12-02T10:05:46.041Z,35.79
2022-12-02T10:08:17.677Z,36.13
2022-12-02T10:10:44.303Z,36.22
2022-12-02T10:13:14.997Z,36.24
2022-12-02T10:15:41.530Z,36.25
2022-12-02T10:18:19.278Z,36.08
2022-12-02T10:20:45.795Z,36.31
2022-12-02T10:23:18.796Z,36.04
2022-12-02T10:25:54.314Z,36.12
2022-12-02T10:28:28.752Z,36.15
2022-12-02T10:31:08.246Z,35.91
2022-12-02T10:33:40.321Z,35.30
2022-12-02T10:36:07.066Z,35.56
2022-12-02T10:38:40.887Z,35.65
2022-12-02T10:41:22.684Z,35.74
2022-12-02T10:43:52.205Z,35.57
2022-12-02T10:46:19.282Z,35.71
2022-12-02T10:48:45.796Z,35.64
2022-12-02T10:51:15.969Z,35.80
2022-12-02T10:53:42.966Z,35.73
2022-12-02T10:56:20.483Z,35.68
2022-12-02T10:58:47.679Z,35.62
2022-12-02T11:01:14.312Z,35.65
2022-12-02T11:03:40.871Z,35.60
2022-12-02T11:06:28.224Z,35.61
2022-12-02T11:09:11.100Z,35.58
2022-12-02T11:11:41.173Z,35.37
2022-12-02T11:14:12.348Z,35.49
2022-12-02T11:16:51.153Z,35.48
2022-12-02T11:19:34.705Z,35.44
2022-12-02T11:22:01.315Z,35.39
2022-12-02T11:24:27.646Z,35.26
2022-12-02T11:27:00.059Z,35.32
2022-12-02T11:29:30.116Z,35.44
2022-12-02T11:32:15.782Z,35.28
2022-12-02T11:37:34.321Z,35.20
2022-12-02T11:40:04.258Z,35.26
2022-12-02T11:42:34.575Z,35.32
2022-12-02T11:45:17.266Z,35.25
2022-12-02T11:47:55.685Z,35.11
2022-12-02T11:50:27.137Z,35.20
2022-12-02T11:52:57.700Z,35.39
2022-12-02T11:55:27.323Z,35.46
2022-12-02T11:57:55.376Z,35.33
2022-12-02T12:00:23.433Z,35.13
2022-12-02T12:03:11.980Z,35.30
2022-12-02T12:05:39.760Z,35.15
2022-12-02T12:08:06.227Z,35.39
2022-12-02T12:10:36.520Z,35.38
2022-12-02T12:13:23.784Z,35.58
2022-12-02T12:15:56.212Z,35.58
2022-12-02T12:18:43.652Z,35.42
2022-12-02T12:21:10.354Z,35.60
2022-12-02T12:23:39.079Z,35.32
2022-12-02T12:26:06.517Z,35.30
2022-12-02T12:28:35.194Z,35.17
2022-12-02T12:31:02.357Z,35.19
2022-12-02T12:33:29.199Z,34.66
2022-12-02T12:35:55.961Z,33.89
2022-12-02T12:38:28.773Z,33.85
2022-12-02T12:40:58.009Z,33.61
2022-12-02T12:43:24.793Z,33.53
2022-12-02T12:45:51.351Z,33.47
2022-12-02T12:48:18.222Z,33.48
2022-12-02T12:50:44.781Z,33.05
2022-12-02T12:53:11.246Z,33.14
2022-12-02T12:55:37.861Z,33.20
2022-12-02T12:58:04.424Z,33.02
2022-12-02T13:00:30.951Z,32.92
2022-12-02T13:02:57.488Z,33.08
2022-12-02T13:05:24.154Z,33.12
2022-12-02T13:07:50.686Z,32.97
2022-12-02T13:10:18.390Z,32.99
2022-12-02T13:12:44.837Z,33.15
2022-12-02T13:15:11.440Z,33.13
2022-12-02T13:17:38.078Z,33.07
2022-12-02T13:20:05.832Z,33.38
2022-12-02T13:22:32.368Z,33.37
2022-12-02T13:25:02.363Z,33.14
2022-12-02T13:27:28.946Z,33.32
2022-12-02T13:29:55.426Z,33.34
2022-12-02T13:32:21.874Z,33.58
2022-12-02T13:34:48.484Z,33.31
2022-12-02T13:37:14.961Z,33.40
2022-12-02T13:39:41.485Z,33.28
2022-12-02T13:42:08.027Z,33.85
2022-12-02T13:44:36.367Z,33.52
2022-12-02T13:47:03.242Z,33.80
2022-12-02T13:49:30.050Z,33.81
2022-12-02T13:51:57.286Z,34.02
2022-12-02T13:54:24.592Z,33.99
2022-12-02T13:56:51.397Z,34.44
2022-12-02T13:59:18.110Z,34.17
2022-12-02T14:01:44.871Z,34.26
2022-12-02T14:04:11.622Z,34.06
2022-12-02T14:06:38.255Z,34.24
2022-12-02T14:09:04.729Z,34.29
2022-12-02T14:11:31.213Z,33.88
2022-12-02T14:13:57.882Z,34.08
2022-12-02T14:16:24.435Z,33.90
2022-12-02T14:18:55.725Z,34.07
2022-12-02T14:21:24.539Z,33.90
2022-12-02T14:23:51.006Z,34.37
2022-12-02T14:26:17.652Z,34.15
2022-12-02T14:28:44.157Z,34.20
2022-12-02T14:31:19.027Z,34.46
2022-12-02T14:34:10.659Z,34.26
2022-12-02T14:36:38.285Z,34.09
2022-12-02T14:39:04.747Z,34.26
2022-12-02T14:41:31.197Z,34.42
2022-12-02T14:43:57.672Z,34.29
2022-12-02T14:46:26.152Z,34.31
2022-12-02T14:48:59.220Z,34.05
2022-12-02T14:51:33.720Z,34.29
2022-12-02T14:54:00.205Z,34.04
2022-12-02T14:56:26.687Z,34.44
2022-12-02T14:58:53.134Z,34.23
2022-12-02T15:01:19.629Z,34.38
2022-12-02T15:03:46.227Z,34.37
2022-12-02T15:06:12.710Z,34.08
2022-12-02T15:08:39.213Z,33.96
2022-12-02T15:11:05.758Z,34.14
2022-12-02T15:13:32.248Z,34.30
2022-12-02T15:16:02.929Z,34.22
2022-12-02T15:18:29.812Z,33.91
2022-12-02T15:20:56.264Z,34.17
2022-12-02T15:23:22.705Z,34.31
2022-12-02T15:25:49.161Z,34.22
2022-12-02T15:28:15.887Z,34.42
2022-12-02T15:30:42.356Z,34.62
2022-12-02T15:33:08.802Z,34.36
2022-12-02T15:35:35.530Z,34.52
2022-12-02T15:38:01.976Z,34.68
2022-12-02T15:40:28.433Z,34.46
2022-12-02T15:42:54.884Z,34.72
2022-12-02T15:45:21.344Z,34.75
2022-12-02T15:47:47.783Z,34.49
2022-12-02T15:50:14.269Z,34.64
2022-12-02T15:52:40.719Z,34.47
2022-12-02T15:55:07.818Z,34.53
2022-12-02T15:57:34.263Z,34.49
2022-12-02T16:00:00.832Z,34.35
2022-12-02T16:02:27.719Z,34.43
2022-12-02T16:04:54.545Z,34.61
2022-12-02T16:07:21.098Z,34.27
2022-12-02T16:09:47.540Z,34.39
2022-12-02T16:12:14.014Z,34.48
2022-12-02T16:14:40.460Z,34.33
2022-12-02T16:17:06.951Z,34.22
2022-12-02T16:19:33.500Z,33.96
2022-12-02T16:21:59.951Z,34.06
2022-12-02T16:24:26.468Z,33.82
2022-12-02T16:26:55.743Z,33.87
2022-12-02T16:29:22.361Z,33.95
2022-12-02T16:31:48.869Z,33.95
2022-12-02T16:34:15.415Z,34.02
2022-12-02T16:36:41.902Z,34.19
2022-12-02T16:39:09.549Z,34.15
2022-12-02T16:41:36.122Z,34.14
2022-12-02T16:44:03.194Z,34.22
2022-12-02T16:46:32.381Z,34.18
2022-12-02T16:48:59.496Z,34.35
2022-12-02T16:51:25.967Z,34.48
2022-12-02T16:53:52.416Z,34.13
2022-12-02T16:56:18.863Z,34.41
2022-12-02T16:58:45.320Z,34.07
2022-12-02T17:01:11.800Z,34.47
2022-12-02T17:03:38.288Z,34.47
2022-12-02T17:06:04.837Z,34.25
2022-12-02T17:08:31.277Z,34.43
2022-12-02T17:10:57.749Z,34.17
2022-12-02T17:13:24.257Z,34.34
2022-12-02T17:15:50.786Z,34.43
2022-12-02T17:18:17.256Z,34.23
2022-12-02T17:20:43.721Z,34.09
2022-12-02T17:23:10.165Z,34.15
2022-12-02T17:25:36.706Z,34.32
2022-12-02T17:28:03.208Z,34.26
2022-12-02T17:30:29.717Z,34.36
2022-12-02T17:32:57.116Z,34.10
2022-12-02T17:35:24.000Z,34.30
2022-12-02T17:37:50.441Z,34.34
2022-12-02T17:40:16.885Z,34.25
2022-12-02T17:42:43.643Z,34.55
2022-12-02T17:45:10.845Z,34.36
2022-12-02T17:47:37.276Z,34.53
2022-12-02T17:50:04.461Z,34.45
2022-12-02T17:52:31.090Z,34.39
2022-12-02T17:54:57.702Z,34.43
2022-12-02T17:57:24.171Z,34.33
2022-12-02T17:59:50.772Z,34.34
2022-12-02T18:02:17.454Z,34.51
2022-12-02T18:04:48.932Z,34.38
2022-12-02T18:07:15.437Z,34.38
2022-12-02T18:09:41.953Z,34.35
2022-12-02T18:12:08.676Z,34.57
2022-12-02T18:14:35.389Z,34.57
2022-12-02T18:17:01.915Z,34.50
2022-12-02T18:19:28.564Z,34.56
2022-12-02T18:21:55.034Z,34.51
2022-12-02T18:24:21.624Z,34.39
2022-12-02T18:26:48.163Z,34.41
2022-12-02T18:29:14.703Z,34.41
2022-12-02T18:31:41.180Z,34.66
2022-12-02T18:34:07.663Z,34.46
2022-12-02T18:36:34.240Z,34.70
2022-12-02T18:39:00.729Z,34.69
2022-12-02T18:41:27.253Z,34.51
2022-12-02T18:43:53.749Z,34.64
2022-12-02T18:46:20.315Z,34.53
2022-12-02T18:48:46.911Z,34.69
2022-12-02T18:51:13.426Z,34.49
2022-12-02T18:53:40.057Z,34.66
2022-12-02T18:56:06.829Z,34.71
2022-12-02T18:58:36.071Z,34.69
2022-12-02T19:01:02.608Z,34.52
2022-12-02T19:03:29.178Z,34.67
2022-12-02T19:05:55.633Z,34.74
2022-12-02T19:08:22.069Z,34.55
2022-12-02T19:10:48.640Z,34.61
2022-12-02T19:13:15.753Z,34.62
2022-12-02T19:15:42.222Z,34.60
2022-12-02T19:18:08.724Z,34.76
2022-12-02T19:20:35.158Z,34.71
2022-12-02T19:23:01.605Z,34.45
2022-12-02T19:25:29.743Z,34.52
2022-12-02T19:27:58.493Z,34.52
2022-12-02T19:30:25.544Z,34.51
2022-12-02T19:32:52.108Z,34.54
2022-12-02T19:35:18.563Z,34.56
2022-12-02T19:37:45.065Z,34.70
2022-12-02T19:40:12.141Z,34.83
2022-12-02T19:42:38.602Z,34.76
2022-12-02T19:45:05.612Z,34.80
2022-12-02T19:47:32.063Z,34.57
2022-12-02T19:49:58.512Z,34.30
2022-12-02T19:52:25.010Z,34.37
2022-12-02T19:54:52.086Z,34.34
2022-12-02T19:57:18.900Z,34.49
2022-12-02T19:59:45.337Z,34.46
2022-12-02T20:02:12.281Z,34.57
2022-12-02T20:04:41.863Z,34.57
2022-12-02T20:07:08.803Z,34.68
2022-12-02T20:09:35.271Z,34.70
2022-12-02T20:12:01.738Z,34.63
2022-12-02T20:14:28.257Z,34.79
2022-12-02T20:16:54.724Z,34.72
2022-12-02T20:19:21.193Z,34.75
2022-12-02T20:21:47.643Z,34.86
2022-12-02T20:24:14.087Z,34.83
2022-12-02T20:26:40.541Z,34.71
2022-12-02T20:29:06.980Z,34.85
2022-12-02T20:31:33.530Z,34.83
2022-12-02T20:34:00.068Z,34.70
2022-12-02T20:36:26.524Z,34.65
2022-12-02T20:38:53.004Z,34.81
2022-12-02T20:41:19.442Z,34.79
2022-12-02T20:43:46.283Z,34.66
2022-12-02T20:46:12.832Z,34.61
2022-12-02T20:48:39.570Z,34.69
2022-12-02T20:51:06.098Z,34.74
2022-12-02T20:53:32.572Z,34.72
2022-12-02T20:55:59.021Z,34.67
2022-12-02T20:58:25.575Z,34.72
2022-12-02T21:00:52.072Z,34.72
2022-12-02T21:03:18.580Z,34.80
2022-12-02T21:05:45.032Z,34.74
2022-12-02T21:08:11.597Z,34.75
2022-12-02T21:10:38.112Z,34.72
2022-12-02T21:13:05.751Z,34.70
2022-12-02T21:15:32.421Z,34.70
2022-12-02T21:17:59.041Z,34.72
2022-12-02T21:20:25.473Z,34.75
2022-12-02T21:22:53.426Z,34.75
2022-12-02T21:25:19.911Z,34.72
2022-12-02T21:27:46.388Z,34.70
2022-12-02T21:30:13.324Z,34.71
2022-12-02T21:32:40.131Z,34.79
2022-12-02T21:35:09.918Z,34.78
2022-12-02T21:37:36.816Z,34.79
2022-12-02T21:40:04.300Z,34.76
2022-12-02T21:42:30.797Z,34.65
2022-12-02T21:44:57.255Z,34.62
2022-12-02T21:47:23.733Z,34.69
2022-12-02T21:49:50.208Z,34.55
2022-12-02T21:52:17.463Z,34.80
2022-12-02T21:54:43.915Z,34.75
2022-12-02T21:57:10.441Z,34.75
2022-12-02T21:59:36.895Z,34.60
2022-12-02T22:02:03.400Z,34.95
2022-12-02T22:04:31.075Z,34.61
2022-12-02T22:07:39.273Z,34.43
2022-12-02T22:10:06.727Z,34.57
2022-12-02T22:12:33.273Z,34.74
2022-12-02T22:14:59.709Z,34.74
2022-12-02T22:17:26.175Z,34.79
2022-12-02T22:19:52.698Z,34.80
2022-12-02T22:22:19.306Z,34.69
2022-12-02T22:24:45.757Z,34.73
2022-12-02T22:27:12.218Z,34.28
2022-12-02T22:29:38.693Z,34.25
2022-12-02T22:32:05.626Z,34.23
2022-12-02T22:34:32.267Z,34.05
2022-12-02T22:36:58.722Z,33.97
2022-12-02T22:39:26.467Z,34.12
2022-12-02T22:41:53.133Z,33.85
2022-12-02T22:44:19.583Z,33.83
2022-12-02T22:46:46.033Z,33.70
2022-12-02T22:49:12.498Z,33.66
2022-12-02T22:51:38.941Z,33.58
2022-12-02T22:54:05.436Z,33.39
2022-12-02T22:56:31.878Z,33.32
2022-12-02T22:58:58.417Z,33.56
2022-12-02T23:01:24.948Z,33.56
2022-12-02T23:03:51.468Z,33.22
2022-12-02T23:06:17.914Z,32.80
2022-12-02T23:08:44.410Z,32.83
2022-12-02T23:11:10.872Z,32.79
2022-12-02T23:13:37.333Z,32.82
2022-12-02T23:16:03.815Z,32.80
2022-12-02T23:18:30.285Z,32.86
2022-12-02T23:20:56.939Z,32.86
2022-12-02T23:23:23.415Z,32.80
2022-12-02T23:25:49.871Z,32.77
2022-12-02T23:28:16.345Z,32.94
2022-12-02T23:30:42.865Z,32.47
2022-12-02T23:33:09.340Z,32.60
2022-12-02T23:35:35.772Z,32.87
2022-12-02T23:38:02.222Z,33.06
2022-12-02T23:40:28.767Z,32.97
2022-12-02T23:42:55.291Z,32.94
2022-12-02T23:45:21.767Z,33.10
2022-12-02T23:47:48.283Z,32.99
2022-12-02T23:50:14.720Z,33.01
2022-12-02T23:52:41.182Z,33.00
2022-12-02T23:55:08.200Z,33.08
2022-12-02T23:57:34.653Z,33.06
